Time;durP1;ratioP1;P1;durP2;ratioP2;P2;SDS_P1;SDS_P2;PMS_P1;PMS_P2;Temp;Humidity;BMP_temperature;BMP_pressure;BME280_temperature;BME280_humidity;BME280_pressure;Samples;Min_cycle;Max_cycle;Signal;HPM_P1;HPM_P2
2024/01/10 00:02:20;;;;;;;;;;;-3.80;99.90;;;;;;5058214;28;19924;-31
2024/01/10 00:04:46;;;;;;;;;;;-3.90;99.90;;;;;;5050915;28;19976;-31
2024/01/10 00:07:13;;;;;;;;;;;-3.80;99.90;;;;;;5063527;28;20376;-31
2024/01/10 00:09:40;;;;;;;;;;;-3.90;99.90;;;;;;5072835;28;19970;-31
2024/01/10 00:12:06;;;;;;;;;;;-3.90;99.90;;;;;;5075111;28;19967;-30
2024/01/10 00:14:35;;;;;;;;;;;-3.90;99.90;;;;;;5074886;28;20331;-32
2024/01/10 00:17:01;;;;;;;;;;;-3.90;99.90;;;;;;5076050;28;19932;-32
2024/01/10 00:19:28;;;;;;;;;;;-3.90;99.90;;;;;;5072809;28;20001;-32
2024/01/10 00:21:55;;;;;;;;;;;-4.00;99.90;;;;;;5073051;28;19928;-32
2024/01/10 00:24:21;;;;;;;;;;;-4.00;99.90;;;;;;5074197;28;20036;-31
2024/01/10 00:26:48;;;;;;;;;;;-4.00;99.90;;;;;;5061503;28;19982;-31
2024/01/10 00:29:15;;;;;;;;;;;-4.00;99.90;;;;;;5074448;28;19925;-31
2024/01/10 00:31:43;;;;;;;;;;;-4.10;99.90;;;;;;5073397;28;19982;-31
2024/01/10 00:34:09;;;;;;;;;;;-4.00;99.90;;;;;;5071471;28;19967;-31
2024/01/10 00:36:36;;;;;;;;;;;-4.00;99.90;;;;;;5073044;28;20879;-31
2024/01/10 00:39:03;;;;;;;;;;;-4.00;99.90;;;;;;5070532;28;19970;-31
2024/01/10 00:41:29;;;;;;;;;;;-4.10;99.90;;;;;;5072314;28;19978;-30
2024/01/10 00:43:56;;;;;;;;;;;-4.10;99.90;;;;;;5073401;28;19978;-31
2024/01/10 00:46:22;;;;;;;;;;;-4.10;99.90;;;;;;5073904;28;20372;-30
2024/01/10 00:48:50;;;;;;;;;;;-4.10;99.90;;;;;;5069218;28;19968;-31
2024/01/10 00:51:17;;;;;;;;;;;-4.20;99.90;;;;;;5067024;28;19955;-32
2024/01/10 00:53:44;;;;;;;;;;;-4.20;99.90;;;;;;5071747;28;19925;-32
2024/01/10 00:56:11;;;;;;;;;;;-4.10;99.90;;;;;;5072613;28;19970;-34
2024/01/10 00:58:38;;;;;;;;;;;-4.20;99.90;;;;;;5074732;28;19924;-32
2024/01/10 01:01:04;;;;;;;;;;;-4.20;99.90;;;;;;5071433;28;19924;-32
2024/01/10 01:03:31;;;;;;;;;;;-4.20;99.90;;;;;;5073355;28;19974;-33
2024/01/10 01:05:59;;;;;;;;;;;-4.20;99.90;;;;;;5063650;28;19968;-32
2024/01/10 01:08:26;;;;;;;;;;;-4.20;99.90;;;;;;5064142;28;19924;-31
2024/01/10 01:10:53;;;;;;;;;;;-4.20;99.90;;;;;;5072336;28;19928;-32
2024/01/10 01:13:22;;;;;;;;;;;-4.20;99.90;;;;;;5067053;28;20308;-33
2024/01/10 01:15:49;;;;;;;;;;;-4.30;99.90;;;;;;5068509;28;19928;-32
2024/01/10 01:18:19;;;;;;;;;;;-4.30;99.90;;;;;;5073420;28;19925;-32
2024/01/10 01:20:47;;;;;;;;;;;-4.30;99.90;;;;;;5070083;28;20368;-32
2024/01/10 01:23:15;;;;;;;;;;;-4.30;99.90;;;;;;5074372;28;19928;-32
2024/01/10 01:25:41;;;;;;;;;;;-4.40;99.90;;;;;;5073233;28;19925;-32
2024/01/10 01:28:08;;;;;;;;;;;-4.40;99.90;;;;;;5071479;28;19924;-32
2024/01/10 01:30:35;;;;;;;;;;;-4.40;99.90;;;;;;5065718;28;19924;-32
2024/01/10 01:33:04;;;;;;;;;;;-4.40;99.90;;;;;;5066964;28;19932;-32
2024/01/10 01:35:31;;;;;;;;;;;-4.40;99.90;;;;;;5073849;28;19932;-31
2024/01/10 01:37:57;;;;;;;;;;;-4.40;99.90;;;;;;5060951;28;19928;-32
2024/01/10 01:40:25;;;;;;;;;;;-4.50;99.90;;;;;;5071837;28;19924;-32
2024/01/10 01:42:53;;;;;;;;;;;-4.50;99.90;;;;;;5071382;28;19974;-31
2024/01/10 01:45:20;;;;;;;;;;;-4.50;99.90;;;;;;5070204;28;19931;-32
2024/01/10 01:47:46;;;;;;;;;;;-4.50;99.90;;;;;;5074050;28;19974;-31
2024/01/10 01:50:13;;;;;;;;;;;-4.60;99.90;;;;;;5071002;28;19928;-31
2024/01/10 01:52:40;;;;;;;;;;;-4.50;99.90;;;;;;5072579;28;19981;-32
2024/01/10 01:55:07;;;;;;;;;;;-4.60;99.90;;;;;;5073392;28;20140;-31
2024/01/10 01:57:35;;;;;;;;;;;-4.60;99.90;;;;;;5071703;28;19924;-32
2024/01/10 02:00:02;;;;;;;;;;;-4.60;99.90;;;;;;5071552;28;19975;-34
2024/01/10 02:02:29;;;;;;;;;;;-4.70;99.90;;;;;;5063829;28;20023;-32
2024/01/10 02:04:56;;;;;;;;;;;-4.70;99.90;;;;;;5067140;28;19978;-32
2024/01/10 02:07:22;;;;;;;;;;;-4.80;99.90;;;;;;5072379;28;19924;-32
2024/01/10 02:09:49;;;;;;;;;;;-4.70;99.90;;;;;;5065911;28;20449;-31
2024/01/10 02:12:16;;;;;;;;;;;-4.80;99.90;;;;;;5067669;28;20458;-32
2024/01/10 02:14:44;;;;;;;;;;;-4.80;99.90;;;;;;5073172;28;19924;-32
2024/01/10 02:17:10;;;;;;;;;;;-4.80;99.90;;;;;;5069495;28;19974;-31
2024/01/10 02:19:37;;;;;;;;;;;-4.80;99.90;;;;;;5065919;28;19982;-32
2024/01/10 02:22:04;;;;;;;;;;;-4.90;99.90;;;;;;5063756;28;19986;-32
2024/01/10 02:24:31;;;;;;;;;;;-4.80;99.90;;;;;;5071028;28;20467;-34
2024/01/10 02:26:59;;;;;;;;;;;-4.90;99.90;;;;;;5072465;28;19924;-31
2024/01/10 02:29:25;;;;;;;;;;;-4.90;99.90;;;;;;5070814;28;19970;-31
2024/01/10 02:31:52;;;;;;;;;;;-4.90;99.90;;;;;;5068854;28;19932;-31
2024/01/10 02:34:19;;;;;;;;;;;-4.90;99.90;;;;;;5065242;28;19982;-33
2024/01/10 02:36:45;;;;;;;;;;;-4.90;99.90;;;;;;5064794;28;20331;-32
2024/01/10 02:39:12;;;;;;;;;;;-4.90;99.90;;;;;;5072232;28;19925;-31
2024/01/10 02:41:38;;;;;;;;;;;-5.00;99.90;;;;;;5069788;28;19925;-31
2024/01/10 02:44:06;;;;;;;;;;;-5.00;99.90;;;;;;5070589;28;19924;-33
2024/01/10 02:46:33;;;;;;;;;;;-5.00;99.90;;;;;;5071109;28;19928;-32
2024/01/10 02:49:00;;;;;;;;;;;-5.00;99.90;;;;;;5069815;28;20357;-32
2024/01/10 02:51:27;;;;;;;;;;;-5.00;99.90;;;;;;5066370;28;20434;-32
2024/01/10 02:53:54;;;;;;;;;;;-4.90;99.90;;;;;;5072460;28;19955;-32
2024/01/10 02:56:20;;;;;;;;;;;-5.00;99.90;;;;;;5070566;28;19970;-32
2024/01/10 02:58:47;;;;;;;;;;;-5.00;99.90;;;;;;5070530;28;19967;-32
2024/01/10 03:01:16;;;;;;;;;;;-5.00;99.90;;;;;;5070691;28;19925;-32
2024/01/10 03:03:42;;;;;;;;;;;-5.00;99.90;;;;;;5070964;28;19964;-32
2024/01/10 03:06:09;;;;;;;;;;;-5.00;99.90;;;;;;5052206;28;19928;-32
2024/01/10 03:08:35;;;;;;;;;;;-4.90;99.90;;;;;;5071716;28;19924;-32
2024/01/10 03:11:02;;;;;;;;;;;-5.00;99.90;;;;;;5071097;28;19924;-32
2024/01/10 03:13:29;;;;;;;;;;;-5.00;99.90;;;;;;5071106;28;19935;-31
2024/01/10 03:15:55;;;;;;;;;;;-5.00;99.90;;;;;;5071402;28;19924;-31
2024/01/10 03:18:24;;;;;;;;;;;-5.00;99.90;;;;;;5072950;28;19970;-30
2024/01/10 03:20:50;;;;;;;;;;;-5.00;99.90;;;;;;5071394;28;19978;-30
2024/01/10 03:23:17;;;;;;;;;;;-5.00;99.90;;;;;;5070017;28;19924;-31
2024/01/10 03:25:44;;;;;;;;;;;-5.00;99.90;;;;;;5065595;28;19924;-32
2024/01/10 03:28:12;;;;;;;;;;;-5.10;99.90;;;;;;5067518;28;19955;-32
2024/01/10 03:30:38;;;;;;;;;;;-5.00;99.90;;;;;;5070196;28;19925;-31
2024/01/10 03:33:05;;;;;;;;;;;-5.00;99.90;;;;;;5069586;28;19978;-32
2024/01/10 03:35:33;;;;;;;;;;;-5.00;99.90;;;;;;5061972;28;19978;-32
2024/01/10 03:38:00;;;;;;;;;;;-5.00;99.90;;;;;;5055592;28;20020;-32
2024/01/10 03:40:26;;;;;;;;;;;-5.00;99.90;;;;;;5059803;28;20284;-31
2024/01/10 03:42:53;;;;;;;;;;;-5.00;99.90;;;;;;5066853;28;19928;-32
2024/01/10 03:45:22;;;;;;;;;;;-5.00;99.90;;;;;;5069986;28;20364;-32
2024/01/10 03:47:51;;;;;;;;;;;-5.00;99.90;;;;;;5066837;28;19932;-31
2024/01/10 03:50:18;;;;;;;;;;;-5.00;99.90;;;;;;5050768;28;19925;-32
2024/01/10 03:52:46;;;;;;;;;;;-5.00;99.90;;;;;;5070666;28;19931;-31
2024/01/10 03:55:15;;;;;;;;;;;-5.00;99.90;;;;;;5053088;28;20402;-31
2024/01/10 03:57:41;;;;;;;;;;;-5.00;99.90;;;;;;5070100;28;19924;-32
2024/01/10 04:00:08;;;;;;;;;;;-4.90;99.90;;;;;;5050315;28;20346;-31
2024/01/10 04:02:36;;;;;;;;;;;-4.90;99.90;;;;;;5053364;28;19978;-31
2024/01/10 04:05:03;;;;;;;;;;;-4.90;99.90;;;;;;5057686;28;19977;-32
2024/01/10 04:07:30;;;;;;;;;;;-5.00;99.90;;;;;;5066672;28;19971;-31
2024/01/10 04:09:58;;;;;;;;;;;-4.90;99.90;;;;;;5071493;28;20358;-32
2024/01/10 04:12:24;;;;;;;;;;;-4.90;99.90;;;;;;5070941;28;20288;-32
2024/01/10 04:14:51;;;;;;;;;;;-4.90;99.90;;;;;;5053389;28;19975;-31
2024/01/10 04:17:17;;;;;;;;;;;-4.90;99.90;;;;;;5053757;28;19978;-31
2024/01/10 04:19:44;;;;;;;;;;;-4.90;99.90;;;;;;5053777;28;19924;-32
2024/01/10 04:22:11;;;;;;;;;;;-5.00;99.90;;;;;;5070787;28;20346;-31
2024/01/10 04:24:37;;;;;;;;;;;-4.90;99.90;;;;;;5053032;28;19967;-31
2024/01/10 04:27:05;;;;;;;;;;;-4.90;99.90;;;;;;5053724;28;19925;-32
2024/01/10 04:29:32;;;;;;;;;;;-4.90;99.90;;;;;;5070729;28;19977;-31
2024/01/10 04:31:59;;;;;;;;;;;-4.90;99.90;;;;;;5051718;28;19925;-31
2024/01/10 04:34:25;;;;;;;;;;;-4.90;99.90;;;;;;5053307;28;20418;-33
2024/01/10 04:36:52;;;;;;;;;;;-4.90;99.90;;;;;;5045384;28;19928;-31
2024/01/10 04:39:19;;;;;;;;;;;-4.90;99.90;;;;;;5050034;28;19978;-31
2024/01/10 04:41:45;;;;;;;;;;;-5.00;99.90;;;;;;5050939;28;19925;-31
2024/01/10 04:44:13;;;;;;;;;;;-4.90;99.90;;;;;;5052617;28;19928;-32
2024/01/10 04:46:41;;;;;;;;;;;-4.90;99.90;;;;;;5053400;28;19965;-31
2024/01/10 04:49:07;;;;;;;;;;;-5.00;99.90;;;;;;5067226;28;19924;-31
2024/01/10 04:51:34;;;;;;;;;;;-4.90;99.90;;;;;;5068945;28;19970;-31
2024/01/10 04:54:00;;;;;;;;;;;-4.90;99.90;;;;;;5072597;28;20357;-30
2024/01/10 04:56:27;;;;;;;;;;;-4.90;99.90;;;;;;5074152;28;19946;-32
2024/01/10 04:58:54;;;;;;;;;;;-5.00;99.90;;;;;;5073317;28;19924;-32
2024/01/10 05:01:22;;;;;;;;;;;-5.00;99.90;;;;;;5068237;28;19925;-32
2024/01/10 05:03:48;;;;;;;;;;;-5.00;99.90;;;;;;5072966;28;19931;-31
2024/01/10 05:06:15;;;;;;;;;;;-5.00;99.90;;;;;;5069966;28;19924;-32
2024/01/10 05:08:41;;;;;;;;;;;-5.00;99.90;;;;;;5078330;28;20315;-34
2024/01/10 05:11:08;;;;;;;;;;;-5.00;99.90;;;;;;5070764;28;19950;-30
2024/01/10 05:13:35;;;;;;;;;;;-5.00;99.90;;;;;;5067787;28;19971;-32
2024/01/10 05:16:02;;;;;;;;;;;-5.00;99.90;;;;;;5070921;28;19925;-31
2024/01/10 05:18:30;;;;;;;;;;;-5.10;99.90;;;;;;5068186;28;19924;-31
2024/01/10 05:20:57;;;;;;;;;;;-5.10;99.90;;;;;;5066301;28;19925;-33
2024/01/10 05:23:24;;;;;;;;;;;-5.10;99.90;;;;;;5072072;28;19932;-31
2024/01/10 05:25:50;;;;;;;;;;;-5.10;99.90;;;;;;5064733;28;19982;-32
2024/01/10 05:28:17;;;;;;;;;;;-5.10;99.90;;;;;;5073136;28;20453;-32
2024/01/10 05:30:44;;;;;;;;;;;-5.10;99.90;;;;;;5071562;28;19958;-32
2024/01/10 05:33:11;;;;;;;;;;;-5.10;99.90;;;;;;5071042;28;20437;-32
2024/01/10 05:35:39;;;;;;;;;;;-5.10;99.90;;;;;;5072525;28;19928;-32
2024/01/10 05:38:05;;;;;;;;;;;-5.10;99.90;;;;;;5072177;28;19925;-31
2024/01/10 05:40:33;;;;;;;;;;;-5.10;99.90;;;;;;5073897;28;19932;-31
2024/01/10 05:43:00;;;;;;;;;;;-5.10;99.90;;;;;;5073687;28;19924;-33
2024/01/10 05:45:26;;;;;;;;;;;-5.10;99.90;;;;;;5075132;28;19928;-31
2024/01/10 05:47:54;;;;;;;;;;;-5.20;99.90;;;;;;5072265;28;19925;-32
2024/01/10 05:50:21;;;;;;;;;;;-5.20;99.90;;;;;;5065218;28;19936;-32
2024/01/10 05:52:49;;;;;;;;;;;-5.10;99.90;;;;;;5072315;28;19962;-31
2024/01/10 05:55:15;;;;;;;;;;;-5.10;99.90;;;;;;5069665;28;19939;-31
2024/01/10 05:57:42;;;;;;;;;;;-5.10;99.90;;;;;;5070813;28;19974;-32
2024/01/10 06:00:09;;;;;;;;;;;-5.10;99.90;;;;;;5064162;28;20021;-32
2024/01/10 06:02:38;;;;;;;;;;;-5.10;99.90;;;;;;5059003;28;20308;-32
2024/01/10 06:05:06;;;;;;;;;;;-5.10;99.90;;;;;;5069517;28;19932;-32
2024/01/10 06:07:32;;;;;;;;;;;-5.10;99.90;;;;;;5069083;28;20292;-31
2024/01/10 06:10:01;;;;;;;;;;;-5.10;99.90;;;;;;5068346;28;19928;-32
2024/01/10 06:12:27;;;;;;;;;;;-5.10;99.90;;;;;;5068745;28;19924;-32
2024/01/10 06:14:54;;;;;;;;;;;-5.10;99.90;;;;;;5071678;28;19931;-32
2024/01/10 06:17:21;;;;;;;;;;;-5.10;99.90;;;;;;5071434;28;19989;-31
2024/01/10 06:19:47;;;;;;;;;;;-5.10;99.90;;;;;;5072888;28;19925;-32
2024/01/10 06:22:14;;;;;;;;;;;-5.10;99.90;;;;;;5073882;28;20442;-32
2024/01/10 06:24:41;;;;;;;;;;;-5.20;99.90;;;;;;5072872;28;20321;-32
2024/01/10 06:27:09;;;;;;;;;;;-5.10;99.90;;;;;;5071079;28;19924;-32
2024/01/10 06:29:36;;;;;;;;;;;-5.10;99.90;;;;;;5072602;28;19928;-32
2024/01/10 06:32:03;;;;;;;;;;;-5.10;99.90;;;;;;5074014;28;20358;-32
2024/01/10 06:34:29;;;;;;;;;;;-5.10;99.90;;;;;;5073756;28;20038;-32
2024/01/10 06:36:57;;;;;;;;;;;-5.20;99.90;;;;;;5072735;28;19925;-32
2024/01/10 06:39:23;;;;;;;;;;;-5.10;99.90;;;;;;5073629;28;19924;-32
2024/01/10 06:41:50;;;;;;;;;;;-5.10;99.90;;;;;;5071369;28;20364;-32
2024/01/10 06:44:18;;;;;;;;;;;-5.10;99.90;;;;;;5073627;28;20411;-31
2024/01/10 06:46:45;;;;;;;;;;;-5.10;99.90;;;;;;5088163;28;19924;-32
2024/01/10 06:49:12;;;;;;;;;;;-5.10;99.90;;;;;;5092448;28;19928;-31
2024/01/10 06:51:38;;;;;;;;;;;-5.10;99.90;;;;;;5092533;28;19928;-32
2024/01/10 06:54:05;;;;;;;;;;;-5.10;99.90;;;;;;5093431;28;19977;-31
2024/01/10 06:56:32;;;;;;;;;;;-5.10;99.90;;;;;;5075440;28;19928;-32
2024/01/10 06:58:58;;;;;;;;;;;-5.20;99.90;;;;;;5072192;28;19925;-32
2024/01/10 07:01:26;;;;;;;;;;;-5.20;99.90;;;;;;5071756;28;19970;-32
2024/01/10 07:03:54;;;;;;;;;;;-5.10;99.90;;;;;;5072404;28;19978;-31
2024/01/10 07:06:21;;;;;;;;;;;-5.20;99.90;;;;;;5073543;28;20027;-31
2024/01/10 07:08:49;;;;;;;;;;;-5.20;99.90;;;;;;5073311;28;19925;-32
2024/01/10 07:11:15;;;;;;;;;;;-5.20;99.90;;;;;;5071972;28;20019;-31
2024/01/10 07:13:42;;;;;;;;;;;-5.20;99.90;;;;;;5073253;28;19994;-31
2024/01/10 07:16:08;;;;;;;;;;;-5.10;99.90;;;;;;5072498;28;20449;-31
2024/01/10 07:18:37;;;;;;;;;;;-5.10;99.90;;;;;;5071956;28;20019;-31
2024/01/10 07:21:04;;;;;;;;;;;-5.10;99.90;;;;;;5071975;28;19976;-31
2024/01/10 07:23:31;;;;;;;;;;;-5.10;99.90;;;;;;5072235;28;20337;-31
2024/01/10 07:25:58;;;;;;;;;;;-5.20;99.90;;;;;;5071143;28;20408;-33
2024/01/10 07:28:25;;;;;;;;;;;-5.20;99.90;;;;;;5072011;28;19953;-31
2024/01/10 07:30:51;;;;;;;;;;;-5.20;99.90;;;;;;5071869;28;20057;-30
2024/01/10 07:33:18;;;;;;;;;;;-5.20;99.90;;;;;;5071662;28;19925;-31
2024/01/10 07:35:46;;;;;;;;;;;-5.20;99.90;;;;;;5071500;28;20437;-31
2024/01/10 07:38:13;;;;;;;;;;;-5.20;99.90;;;;;;5072663;28;19971;-31
2024/01/10 07:40:39;;;;;;;;;;;-5.20;99.90;;;;;;5070969;28;19997;-31
2024/01/10 07:43:06;;;;;;;;;;;-5.20;99.90;;;;;;5071695;28;19924;-31
2024/01/10 07:45:33;;;;;;;;;;;-5.20;99.90;;;;;;5071800;28;19924;-31
2024/01/10 07:48:00;;;;;;;;;;;-5.20;99.90;;;;;;5080974;28;20329;-30
2024/01/10 07:50:27;;;;;;;;;;;-5.20;99.90;;;;;;5092733;28;19935;-31
2024/01/10 07:52:56;;;;;;;;;;;-5.20;99.90;;;;;;5074547;28;19924;-32
2024/01/10 07:55:22;;;;;;;;;;;-5.20;99.90;;;;;;5074553;28;19924;-31
2024/01/10 07:57:49;;;;;;;;;;;-5.20;99.90;;;;;;5074877;28;19993;-33
2024/01/10 08:00:16;;;;;;;;;;;-5.20;99.90;;;;;;5074511;28;19928;-33
2024/01/10 08:02:43;;;;;;;;;;;-5.10;99.90;;;;;;5092761;28;19924;-32
2024/01/10 08:05:10;;;;;;;;;;;-5.10;99.90;;;;;;5074596;28;20380;-31
2024/01/10 08:07:36;;;;;;;;;;;-5.10;99.90;;;;;;5092666;28;19924;-32
2024/01/10 08:10:05;;;;;;;;;;;-5.10;99.90;;;;;;5074219;28;19968;-31
2024/01/10 08:12:32;;;;;;;;;;;-5.20;99.90;;;;;;5074713;28;19928;-31
2024/01/10 08:14:58;;;;;;;;;;;-5.10;99.90;;;;;;5092820;28;19924;-32
2024/01/10 08:17:25;;;;;;;;;;;-5.10;99.90;;;;;;5074457;28;19982;-32
2024/01/10 08:19:52;;;;;;;;;;;-5.10;99.90;;;;;;5074270;28;20444;-33
2024/01/10 08:22:20;;;;;;;;;;;-5.00;99.90;;;;;;5074171;28;19924;-33
2024/01/10 08:24:46;;;;;;;;;;;-5.00;99.90;;;;;;5092338;28;19924;-32
2024/01/10 08:27:14;;;;;;;;;;;-5.00;99.90;;;;;;5087099;28;20382;-32
2024/01/10 08:29:41;;;;;;;;;;;-5.00;99.90;;;;;;5076436;28;20301;-32
2024/01/10 08:32:07;;;;;;;;;;;-4.90;99.90;;;;;;5058188;28;20441;-32
2024/01/10 08:34:34;;;;;;;;;;;-4.90;99.90;;;;;;5058307;28;19974;-33
2024/01/10 08:37:01;;;;;;;;;;;-4.90;99.90;;;;;;5075862;28;19931;-32
2024/01/10 08:39:28;;;;;;;;;;;-4.90;99.90;;;;;;5058205;28;19946;-32
2024/01/10 08:41:55;;;;;;;;;;;-4.80;99.90;;;;;;5081963;28;19928;-32
2024/01/10 08:44:23;;;;;;;;;;;-4.80;99.90;;;;;;5078312;28;19924;-32
2024/01/10 08:46:50;;;;;;;;;;;-4.80;99.90;;;;;;5078330;28;19924;-31
2024/01/10 08:49:17;;;;;;;;;;;-4.60;99.90;;;;;;5076749;28;19924;-32
2024/01/10 08:51:46;;;;;;;;;;;-4.60;99.90;;;;;;5074778;28;19985;-32
2024/01/10 08:54:16;;;;;;;;;;;-4.60;99.90;;;;;;5074192;28;20506;-32
2024/01/10 08:56:43;;;;;;;;;;;-4.60;99.90;;;;;;5064343;28;19928;-32
2024/01/10 08:59:11;;;;;;;;;;;-4.50;99.90;;;;;;5054730;28;19925;-32
2024/01/10 09:01:39;;;;;;;;;;;-4.50;99.90;;;;;;5055623;28;19930;-33
2024/01/10 09:04:06;;;;;;;;;;;-4.50;99.90;;;;;;5054550;28;19924;-32
2024/01/10 09:06:33;;;;;;;;;;;-4.40;99.90;;;;;;5054519;28;20354;-31
2024/01/10 09:08:59;;;;;;;;;;;-4.30;99.90;;;;;;5055317;28;20023;-32
2024/01/10 09:11:26;;;;;;;;;;;-4.30;99.90;;;;;;5054524;28;19986;-31
2024/01/10 09:13:53;;;;;;;;;;;-4.20;99.90;;;;;;5054383;28;19928;-32
2024/01/10 09:16:19;;;;;;;;;;;-4.20;99.90;;;;;;5054272;28;19980;-32
2024/01/10 09:18:48;;;;;;;;;;;-4.10;99.90;;;;;;5055369;28;20288;-33
2024/01/10 09:21:15;;;;;;;;;;;-4.10;99.90;;;;;;5053777;28;20008;-32
2024/01/10 09:23:42;;;;;;;;;;;-4.00;99.90;;;;;;5053821;28;19924;-31
2024/01/10 09:26:09;;;;;;;;;;;-3.90;99.90;;;;;;5055478;28;19975;-32
2024/01/10 09:28:36;;;;;;;;;;;-3.90;99.90;;;;;;5070526;28;19931;-32
2024/01/10 09:31:02;;;;;;;;;;;-3.80;99.90;;;;;;5074079;28;19924;-32
2024/01/10 09:33:29;;;;;;;;;;;-3.70;99.90;;;;;;5073804;28;19928;-32
2024/01/10 09:35:57;;;;;;;;;;;-3.70;99.90;;;;;;5073860;28;19925;-32
2024/01/10 09:38:24;;;;;;;;;;;-3.60;99.90;;;;;;5074577;28;19932;-34
2024/01/10 09:40:50;;;;;;;;;;;-3.60;99.90;;;;;;5072609;28;20014;-32
2024/01/10 09:43:17;;;;;;;;;;;-3.50;99.90;;;;;;5073801;28;19924;-32
2024/01/10 09:45:46;;;;;;;;;;;-3.40;99.90;;;;;;5056808;28;19932;-33
2024/01/10 09:48:12;;;;;;;;;;;-3.40;99.90;;;;;;5064758;28;20338;-32
2024/01/10 09:50:39;;;;;;;;;;;-3.30;99.90;;;;;;5057066;28;20441;-32
2024/01/10 09:53:07;;;;;;;;;;;-3.20;99.90;;;;;;5056731;28;19970;-32
2024/01/10 09:55:35;;;;;;;;;;;-3.10;99.90;;;;;;5057000;28;19931;-32
2024/01/10 09:58:03;;;;;;;;;;;-3.10;99.90;;;;;;5074490;28;20060;-32
2024/01/10 10:00:30;;;;;;;;;;;-3.00;99.90;;;;;;5074336;28;19924;-32
2024/01/10 10:02:57;;;;;;;;;;;-2.90;99.90;;;;;;5056758;28;19998;-34
2024/01/10 10:05:23;;;;;;;;;;;-2.90;99.90;;;;;;5056266;28;19929;-32
2024/01/10 10:07:50;;;;;;;;;;;-2.70;99.90;;;;;;5056794;28;20299;-31
2024/01/10 10:10:18;;;;;;;;;;;-2.70;99.90;;;;;;5056744;28;19970;-32
2024/01/10 10:12:45;;;;;;;;;;;-2.60;99.90;;;;;;5056283;28;19924;-33
2024/01/10 10:15:13;;;;;;;;;;;-2.20;99.90;;;;;;5074074;28;19974;-31
2024/01/10 10:17:45;;;;;;;;;;;-2.40;99.90;;;;;;5056521;28;19971;-30
2024/01/10 10:20:13;;;;;;;;;;;-2.40;99.90;;;;;;5073970;28;20404;-32
2024/01/10 10:22:40;;;;;;;;;;;-2.30;99.90;;;;;;5056663;28;19972;-32
2024/01/10 10:25:07;;;;;;;;;;;-2.30;99.90;;;;;;5074282;28;19924;-34
2024/01/10 10:27:35;;;;;;;;;;;-2.20;99.90;;;;;;5064268;28;19932;-32
2024/01/10 10:30:01;;;;;;;;;;;-2.10;99.90;;;;;;5076299;28;19924;-31
2024/01/10 10:32:28;;;;;;;;;;;-2.10;99.90;;;;;;5076316;28;19924;-31
2024/01/10 10:34:56;;;;;;;;;;;-2.00;99.90;;;;;;5076004;28;20021;-32
2024/01/10 10:37:23;;;;;;;;;;;-2.00;99.90;;;;;;5093819;28;19928;-33
2024/01/10 10:39:49;;;;;;;;;;;-1.90;99.90;;;;;;5094329;28;20337;-33
2024/01/10 10:42:16;;;;;;;;;;;-1.90;99.90;;;;;;5071000;28;19924;-32
2024/01/10 10:44:44;;;;;;;;;;;-1.90;99.90;;;;;;5056085;28;19925;-32
2024/01/10 10:47:11;;;;;;;;;;;-1.80;99.90;;;;;;5055684;28;19924;-33
2024/01/10 10:49:37;;;;;;;;;;;-1.70;99.90;;;;;;5072515;28;19925;-32
2024/01/10 10:52:05;;;;;;;;;;;-1.70;99.90;;;;;;5073121;28;19978;-32
2024/01/10 10:54:32;;;;;;;;;;;-1.70;99.90;;;;;;5073064;28;20298;-31
2024/01/10 10:56:58;;;;;;;;;;;-1.60;99.90;;;;;;5072457;28;19925;-32
2024/01/10 10:59:26;;;;;;;;;;;-1.60;99.90;;;;;;5072229;28;20098;-32
2024/01/10 11:01:54;;;;;;;;;;;-1.60;99.90;;;;;;5072114;28;19978;-32
2024/01/10 11:04:20;;;;;;;;;;;-1.50;99.90;;;;;;5071983;28;19970;-32
2024/01/10 11:06:47;;;;;;;;;;;-1.50;99.90;;;;;;5072422;28;19925;-33
2024/01/10 11:09:14;;;;;;;;;;;-1.50;99.90;;;;;;5071931;28;20365;-32
2024/01/10 11:11:46;;;;;;;;;;;-1.50;99.90;;;;;;5072253;28;19924;-32
2024/01/10 11:14:18;;;;;;;;;;;-1.40;99.90;;;;;;5071966;28;19974;-32
2024/01/10 11:16:53;;;;;;;;;;;-1.30;99.90;;;;;;5073012;28;19925;-32
2024/01/10 11:19:33;;;;;;;;;;;-1.30;99.90;;;;;;5072316;28;19924;-33
2024/01/10 11:22:01;;;;;;;;;;;-1.20;99.90;;;;;;5071683;28;19924;-30
2024/01/10 11:24:27;;;;;;;;;;;-1.20;99.90;;;;;;5051884;28;19924;-30
2024/01/10 11:27:07;;;;;;;;;;;-1.10;99.90;;;;;;5054212;28;20050;-32
2024/01/10 11:29:33;;;;;;;;;;;-1.10;99.90;;;;;;5071713;28;19955;-31
2024/01/10 11:32:02;;;;;;;;;;;-1.00;99.90;;;;;;5070943;28;21436;-32
2024/01/10 11:34:28;;;;;;;;;;;-0.90;99.90;;;;;;5071842;28;19963;-32
2024/01/10 11:37:11;;;;;;;;;;;-0.90;99.90;;;;;;5072703;28;19924;-33
2024/01/10 11:39:38;;;;;;;;;;;-0.80;99.90;;;;;;5071745;28;19931;-31
2024/01/10 11:42:05;;;;;;;;;;;-0.70;99.90;;;;;;5071374;28;19925;-32
2024/01/10 11:44:31;;;;;;;;;;;-0.70;99.90;;;;;;5071610;28;19978;-32
2024/01/10 11:46:58;;;;;;;;;;;-0.70;99.90;;;;;;5071720;28;20349;-32
2024/01/10 11:49:25;;;;;;;;;;;-0.60;99.90;;;;;;5074780;28;19983;-33
2024/01/10 11:51:53;;;;;;;;;;;-0.60;99.90;;;;;;5074780;28;19924;-31
2024/01/10 11:54:38;;;;;;;;;;;-0.60;99.90;;;;;;5074433;28;19924;-32
2024/01/10 11:57:09;;;;;;;;;;;-0.50;99.90;;;;;;5092518;28;19928;-32
2024/01/10 11:59:36;;;;;;;;;;;-0.50;99.90;;;;;;5092852;28;20360;-32
2024/01/10 12:02:03;;;;;;;;;;;-0.40;99.90;;;;;;5074130;28;19924;-32
2024/01/10 12:04:30;;;;;;;;;;;-0.30;99.90;;;;;;5074451;28;19928;-32
2024/01/10 12:06:57;;;;;;;;;;;-0.30;99.90;;;;;;5074017;28;19924;-32
2024/01/10 12:09:24;;;;;;;;;;;-0.20;99.90;;;;;;5072049;28;19932;-33
2024/01/10 12:11:51;;;;;;;;;;;-0.10;99.90;;;;;;5073375;28;20421;-32
2024/01/10 12:14:20;;;;;;;;;;;-0.10;99.90;;;;;;5074473;28;19924;-32
2024/01/10 12:16:47;;;;;;;;;;;-0.10;99.90;;;;;;5073947;28;19977;-31
2024/01/10 12:19:14;;;;;;;;;;;0.00;99.90;;;;;;5074717;28;19946;-31
2024/01/10 12:21:41;;;;;;;;;;;0.00;99.90;;;;;;5091652;28;19924;-32
2024/01/10 12:24:08;;;;;;;;;;;0.00;99.90;;;;;;5074523;28;19974;-32
2024/01/10 12:26:35;;;;;;;;;;;0.10;99.90;;;;;;5074591;28;19997;-32
2024/01/10 12:29:04;;;;;;;;;;;0.10;99.90;;;;;;5058050;28;20034;-32
2024/01/10 12:31:32;;;;;;;;;;;0.10;99.90;;;;;;5092470;28;19967;-32
2024/01/10 12:33:58;;;;;;;;;;;0.10;99.90;;;;;;5092359;28;19928;-32
2024/01/10 12:36:25;;;;;;;;;;;0.10;99.90;;;;;;5073958;28;20375;-31
2024/01/10 12:38:52;;;;;;;;;;;0.10;99.90;;;;;;5092210;28;19978;-32
2024/01/10 12:41:18;;;;;;;;;;;0.20;99.90;;;;;;5074443;28;20069;-31
2024/01/10 12:43:49;;;;;;;;;;;0.20;99.90;;;;;;5072839;28;20068;-32
2024/01/10 12:46:16;;;;;;;;;;;0.20;99.90;;;;;;5074388;28;19924;-31
2024/01/10 12:48:44;;;;;;;;;;;0.30;99.90;;;;;;5070831;28;20294;-32
2024/01/10 12:51:10;;;;;;;;;;;0.30;99.90;;;;;;5070862;28;20266;-33
2024/01/10 12:53:37;;;;;;;;;;;0.30;99.90;;;;;;5066497;28;19928;-32
2024/01/10 12:56:04;;;;;;;;;;;0.30;99.90;;;;;;5050778;28;19983;-33
2024/01/10 12:58:31;;;;;;;;;;;0.30;99.90;;;;;;5066435;28;19959;-32
2024/01/10 13:00:57;;;;;;;;;;;0.30;99.90;;;;;;5080455;28;19983;-33
2024/01/10 13:03:24;;;;;;;;;;;0.30;99.90;;;;;;5092231;28;19928;-31
2024/01/10 13:05:52;;;;;;;;;;;0.40;99.90;;;;;;5092431;28;19977;-32
2024/01/10 13:08:19;;;;;;;;;;;0.30;99.90;;;;;;5050311;28;19982;-31
2024/01/10 13:10:47;;;;;;;;;;;0.30;99.90;;;;;;5051922;28;19925;-32
2024/01/10 13:13:14;;;;;;;;;;;0.40;99.90;;;;;;5055757;28;20367;-31
2024/01/10 13:15:40;;;;;;;;;;;0.40;99.90;;;;;;5073869;28;20376;-32
2024/01/10 13:18:09;;;;;;;;;;;0.50;99.90;;;;;;5074293;28;20148;-32
2024/01/10 13:20:36;;;;;;;;;;;0.50;99.90;;;;;;5073722;28;19925;-31
2024/01/10 13:23:04;;;;;;;;;;;0.50;99.90;;;;;;5075002;28;19986;-33
2024/01/10 13:25:30;;;;;;;;;;;0.50;99.80;;;;;;5074395;28;19928;-32
2024/01/10 13:27:58;;;;;;;;;;;0.50;99.50;;;;;;5074487;28;19955;-32
2024/01/10 13:30:24;;;;;;;;;;;0.50;99.90;;;;;;5073534;28;19934;-34
2024/01/10 13:32:51;;;;;;;;;;;0.50;99.90;;;;;;5074313;28;19974;-31
2024/01/10 13:35:17;;;;;;;;;;;0.50;99.90;;;;;;5075276;28;20326;-32
2024/01/10 13:37:44;;;;;;;;;;;0.50;99.90;;;;;;5073958;28;19928;-32
2024/01/10 13:40:13;;;;;;;;;;;0.60;99.90;;;;;;5074056;28;19946;-31
2024/01/10 13:42:40;;;;;;;;;;;0.70;99.90;;;;;;5073792;28;19978;-31
2024/01/10 13:45:07;;;;;;;;;;;0.70;99.90;;;;;;5073319;28;19971;-32
2024/01/10 13:47:35;;;;;;;;;;;0.70;99.90;;;;;;5074843;28;19971;-32
2024/01/10 13:50:03;;;;;;;;;;;0.70;99.90;;;;;;5074181;28;19924;-32
2024/01/10 13:52:29;;;;;;;;;;;0.80;99.90;;;;;;5072095;28;19925;-32
2024/01/10 13:54:56;;;;;;;;;;;0.60;99.90;;;;;;5061958;28;19929;-32
2024/01/10 13:57:24;;;;;;;;;;;0.60;99.90;;;;;;5054972;28;20274;-31
2024/01/10 13:59:51;;;;;;;;;;;0.60;99.90;;;;;;5072460;28;20347;-32
2024/01/10 14:02:19;;;;;;;;;;;0.50;99.90;;;;;;5071820;28;20391;-32
2024/01/10 14:04:46;;;;;;;;;;;0.50;99.90;;;;;;5074354;28;20281;-33
2024/01/10 14:07:12;;;;;;;;;;;0.50;99.90;;;;;;5074228;28;19970;-33
2024/01/10 14:09:39;;;;;;;;;;;0.40;99.90;;;;;;5073717;28;19924;-31
2024/01/10 14:12:06;;;;;;;;;;;0.40;99.90;;;;;;5071901;28;19944;-32
2024/01/10 14:14:34;;;;;;;;;;;0.40;99.90;;;;;;5073255;28;19973;-31
2024/01/10 14:17:01;;;;;;;;;;;0.30;99.90;;;;;;5071076;28;19963;-32
2024/01/10 14:19:27;;;;;;;;;;;0.30;99.90;;;;;;5073029;28;19925;-32